Time;durP1;ratioP1;P1;durP2;ratioP2;P2;SDS_P1;SDS_P2;PMS_P1;PMS_P2;Temp;Humidity;BMP_temperature;BMP_pressure;BME280_temperature;BME280_humidity;BME280_pressure;Samples;Min_cycle;Max_cycle;Signal;HPM_P1;HPM_P2
2024/03/08 00:00:25;;;;;;;64.90;35.80;;;;;;;-1.00;81.77;99436.28;227019;1270;22531;-82
2024/03/08 00:05:26;;;;;;;64.10;35.70;;;;;;;-1.05;81.45;99432.48;227040;1269;22562;-82
2024/03/08 00:10:29;;;;;;;65.30;34.90;;;;;;;-1.10;81.68;99432.79;226880;1271;22549;-83
2024/03/08 00:15:32;;;;;;;53.80;30.80;;;;;;;-1.17;81.92;99433.21;226898;1272;22558;-82
2024/03/08 00:20:34;;;;;;;60.80;31.80;;;;;;;-1.23;81.87;99433.44;226962;1272;22548;-83
2024/03/08 00:25:38;;;;;;;59.90;34.10;;;;;;;-1.31;82.17;99429.77;226962;1273;22776;-82
2024/03/08 00:30:42;;;;;;;60.30;34.90;;;;;;;-1.37;82.39;99429.48;226987;1269;25338;-82
2024/03/08 00:35:44;;;;;;;58.70;32.40;;;;;;;-1.44;82.03;99425.09;227005;1272;22560;-83
2024/03/08 00:40:46;;;;;;;66.90;36.40;;;;;;;-1.48;82.13;99419.13;226946;1269;22668;-81
2024/03/08 00:45:48;;;;;;;68.50;38.00;;;;;;;-1.51;82.52;99414.16;226919;1268;23004;-82
2024/03/08 00:50:50;;;;;;;63.10;37.00;;;;;;;-1.52;82.39;99413.20;226745;1250;328585;-82
2024/03/08 00:55:52;;;;;;;64.50;34.90;;;;;;;-1.50;82.90;99407.53;226993;1272;22637;-82
2024/03/08 01:00:54;;;;;;;70.90;39.50;;;;;;;-1.44;83.08;99406.79;227016;1273;22551;-82
2024/03/08 01:05:59;;;;;;;67.20;36.00;;;;;;;-1.45;82.94;99406.67;226981;1270;22537;-84
2024/03/08 01:11:01;;;;;;;63.40;35.00;;;;;;;-1.50;82.55;99397.52;227028;1270;22551;-83
2024/03/08 01:16:05;;;;;;;66.10;36.60;;;;;;;-1.57;82.81;99390.84;226921;1267;22637;-84
2024/03/08 01:21:06;;;;;;;64.80;35.50;;;;;;;-1.64;83.05;99385.95;227045;1272;22823;-82
2024/03/08 01:26:09;;;;;;;66.70;36.50;;;;;;;-1.70;83.11;99382.54;227044;1273;22527;-82
2024/03/08 01:31:11;;;;;;;71.60;37.40;;;;;;;-1.74;82.98;99378.66;227014;1270;22631;-82
2024/03/08 01:36:15;;;;;;;59.80;33.80;;;;;;;-1.79;83.01;99371.34;227058;1272;22610;-83
2024/03/08 01:41:17;;;;;;;67.40;36.70;;;;;;;-1.80;83.11;99366.60;227036;1270;22580;-83
2024/03/08 01:46:24;;;;;;;59.40;34.10;;;;;;;-1.83;83.28;99362.65;226916;1271;22641;-83
2024/03/08 01:51:28;;;;;;;60.10;34.20;;;;;;;-1.86;83.38;99363.98;226957;1268;22603;-83
2024/03/08 01:56:31;;;;;;;60.00;33.70;;;;;;;-1.89;83.73;99364.54;227041;1270;22712;-83
2024/03/08 02:01:34;;;;;;;52.90;31.00;;;;;;;-1.90;83.75;99360.26;227036;1270;26074;-83
2024/03/08 02:06:37;;;;;;;56.50;30.80;;;;;;;-1.88;83.54;99358.46;227053;1269;22523;-83
2024/03/08 02:11:41;;;;;;;58.40;32.60;;;;;;;-1.86;83.90;99355.19;226972;1269;22648;-82
2024/03/08 02:16:43;;;;;;;57.30;31.10;;;;;;;-1.87;84.01;99350.13;227002;1270;22536;-83
2024/03/08 02:21:47;;;;;;;56.00;33.70;;;;;;;-1.90;83.80;99348.88;227014;1273;22552;-83
2024/03/08 02:26:49;;;;;;;57.50;32.00;;;;;;;-1.92;83.70;99346.44;226971;1270;22544;-83
2024/03/08 02:31:52;;;;;;;58.70;33.90;;;;;;;-1.92;83.92;99346.77;227014;1270;23346;-83
2024/03/08 02:36:56;;;;;;;56.20;31.00;;;;;;;-1.87;84.24;99341.65;226959;1262;22612;-83
2024/03/08 02:41:58;;;;;;;57.30;32.10;;;;;;;-1.82;84.38;99344.80;227045;1273;22714;-83
2024/03/08 02:47:01;;;;;;;57.20;31.20;;;;;;;-1.82;84.05;99343.02;226987;1267;22848;-83
2024/03/08 02:52:04;;;;;;;56.40;32.00;;;;;;;-1.84;84.00;99347.66;226902;1269;22553;-83
2024/03/08 02:57:07;;;;;;;49.20;29.90;;;;;;;-1.88;84.04;99344.48;227028;1273;25525;-82
2024/03/08 03:02:10;;;;;;;49.20;29.20;;;;;;;-1.92;84.30;99339.70;227004;1269;23810;-83
2024/03/08 03:07:12;;;;;;;54.50;29.10;;;;;;;-1.95;84.05;99338.21;226751;1273;25471;-83
2024/03/08 03:12:14;;;;;;;52.10;29.20;;;;;;;-1.98;84.50;99342.67;226874;1268;25486;-83
2024/03/08 03:17:16;;;;;;;54.80;30.30;;;;;;;-2.02;84.18;99344.49;227016;1270;22597;-83
2024/03/08 03:22:19;;;;;;;53.80;30.90;;;;;;;-2.05;84.24;99339.16;226931;1270;22543;-82
2024/03/08 03:27:21;;;;;;;51.50;29.60;;;;;;;-2.08;84.13;99332.92;226922;1265;22534;-83
2024/03/08 03:32:23;;;;;;;52.10;29.30;;;;;;;-2.11;84.23;99333.84;226827;1268;22547;-83
2024/03/08 03:37:25;;;;;;;49.50;29.60;;;;;;;-2.16;84.46;99338.28;226946;1259;22530;-83
2024/03/08 03:42:27;;;;;;;58.80;31.80;;;;;;;-2.22;84.15;99337.77;226937;1272;22633;-83
2024/03/08 03:47:29;;;;;;;56.50;32.70;;;;;;;-2.25;84.29;99337.29;226909;1270;23122;-83
2024/03/08 03:52:31;;;;;;;59.30;32.50;;;;;;;-2.27;84.53;99337.89;226948;1270;22537;-83
2024/03/08 03:57:33;;;;;;;59.20;32.70;;;;;;;-2.27;84.74;99334.83;226884;1271;22780;-83
2024/03/08 04:02:39;;;;;;;61.50;33.30;;;;;;;-2.26;84.82;99331.46;226873;1270;22662;-82
2024/03/08 04:07:41;;;;;;;60.10;33.10;;;;;;;-2.27;84.84;99331.19;226897;1270;22510;-82
2024/03/08 04:12:43;;;;;;;55.70;32.80;;;;;;;-2.31;84.55;99325.55;226943;1273;22713;-83
2024/03/08 04:17:45;;;;;;;53.10;30.20;;;;;;;-2.32;84.87;99325.47;226934;1271;22715;-83
2024/03/08 04:22:49;;;;;;;55.80;31.90;;;;;;;-2.32;84.59;99329.92;226867;1270;24796;-83
2024/03/08 04:27:52;;;;;;;58.60;33.30;;;;;;;-2.32;84.79;99331.16;226858;1270;22601;-83
2024/03/08 04:32:54;;;;;;;54.30;29.40;;;;;;;-2.33;84.69;99327.45;226893;1270;22688;-83
2024/03/08 04:37:57;;;;;;;51.50;29.20;;;;;;;-2.36;84.63;99335.56;226861;1270;22483;-83
2024/03/08 04:42:59;;;;;;;50.00;29.50;;;;;;;-2.40;84.72;99332.20;226792;1270;22600;-83
2024/03/08 04:48:02;;;;;;;58.60;29.10;;;;;;;-2.44;84.84;99331.59;226762;1271;22585;-82
2024/03/08 04:53:07;;;;;;;55.40;30.20;;;;;;;-2.47;85.08;99339.13;226810;1273;22615;-82
2024/03/08 04:58:10;;;;;;;46.00;27.10;;;;;;;-2.49;84.93;99338.23;226785;1273;22565;-82
2024/03/08 05:03:12;;;;;;;51.00;28.40;;;;;;;-2.50;85.04;99337.59;226904;1269;25670;-82
2024/03/08 05:08:14;;;;;;;50.90;28.60;;;;;;;-2.52;84.96;99333.23;226888;1268;22596;-82
2024/03/08 05:13:16;;;;;;;49.60;27.90;;;;;;;-2.54;85.27;99330.93;226873;1273;22609;-82
2024/03/08 05:18:18;;;;;;;48.80;28.40;;;;;;;-2.53;85.09;99330.17;226920;1267;23229;-83
2024/03/08 05:23:22;;;;;;;47.70;27.90;;;;;;;-2.51;85.06;99337.46;226924;1270;22653;-82
2024/03/08 05:28:24;;;;;;;52.00;30.20;;;;;;;-2.50;85.16;99337.20;226946;1268;22753;-83
2024/03/08 05:33:26;;;;;;;49.40;27.80;;;;;;;-2.47;84.94;99337.42;226802;1270;22589;-82
2024/03/08 05:38:28;;;;;;;47.90;27.10;;;;;;;-2.42;85.22;99337.48;226902;1270;23391;-83
2024/03/08 05:43:30;;;;;;;53.20;31.20;;;;;;;-2.32;85.34;99343.09;226856;1268;22619;-82
2024/03/08 05:48:32;;;;;;;55.30;30.70;;;;;;;-2.20;85.54;99344.92;226708;1271;22647;-82
2024/03/08 05:53:35;;;;;;;50.00;29.00;;;;;;;-2.03;85.68;99352.31;226840;1273;22616;-82
2024/03/08 05:58:37;;;;;;;43.70;25.50;;;;;;;-1.83;85.33;99351.20;226857;1273;22550;-82
2024/03/08 06:03:45;;;;;;;51.50;29.10;;;;;;;-1.66;85.34;99350.31;226775;1270;22580;-83
2024/03/08 06:08:49;;;;;;;43.30;28.00;;;;;;;-1.47;85.21;99351.48;226794;1270;22684;-82
2024/03/08 06:13:51;;;;;;;46.80;28.40;;;;;;;-1.29;85.26;99343.98;226835;1270;24263;-82
2024/03/08 06:18:52;;;;;;;45.80;27.60;;;;;;;-1.08;85.67;99346.25;226883;1272;22978;-83
2024/03/08 06:23:57;;;;;;;48.80;27.40;;;;;;;-0.89;85.11;99346.02;226896;1272;22531;-83
2024/03/08 06:29:01;;;;;;;46.30;28.40;;;;;;;-0.69;84.90;99347.95;226790;1271;22689;-82
2024/03/08 06:34:03;;;;;;;45.80;28.80;;;;;;;-0.51;84.56;99342.05;226775;1270;22518;-83
2024/03/08 06:39:09;;;;;;;46.30;27.80;;;;;;;-0.35;84.70;99340.73;226848;1267;22526;-83
2024/03/08 06:44:12;;;;;;;39.30;24.80;;;;;;;-0.15;84.25;99341.81;226873;1273;22551;-83
2024/03/08 06:49:15;;;;;;;43.00;26.00;;;;;;;0.04;83.98;99341.30;226812;1269;22527;-84
2024/03/08 06:54:17;;;;;;;43.30;27.40;;;;;;;0.24;84.06;99343.15;226587;1262;22542;-83
2024/03/08 06:59:19;;;;;;;36.90;23.90;;;;;;;0.41;83.70;99336.55;226702;1251;22556;-83
2024/03/08 07:04:24;;;;;;;35.70;22.60;;;;;;;0.54;83.35;99337.16;226452;1265;22504;-81
2024/03/08 07:09:26;;;;;;;33.40;22.30;;;;;;;0.72;83.51;99333.15;226531;1268;22563;-82
2024/03/08 07:14:28;;;;;;;34.50;22.10;;;;;;;0.90;82.86;99333.64;226603;1262;22573;-84
2024/03/08 07:19:31;;;;;;;30.10;21.30;;;;;;;1.11;82.96;99333.13;226284;1259;22524;-84
2024/03/08 07:30:10;;;;;;;30.80;21.60;;;;;;;1.38;81.99;99333.33;225561;1273;22892;-83
2024/03/08 07:35:12;;;;;;;32.10;20.90;;;;;;;1.52;81.71;99331.38;226350;1271;22527;-82
2024/03/08 07:40:14;;;;;;;33.60;22.90;;;;;;;1.69;81.48;99330.11;226359;1270;22529;-83
2024/03/08 07:45:17;;;;;;;29.80;20.30;;;;;;;1.85;81.36;99329.53;226316;1273;22544;-82
2024/03/08 07:50:19;;;;;;;31.00;20.40;;;;;;;2.00;80.94;99328.01;226378;1252;22550;-84
2024/03/08 07:55:24;;;;;;;32.90;22.80;;;;;;;2.10;80.53;99326.02;226653;1273;22543;-83
2024/03/08 08:00:27;;;;;;;27.70;19.80;;;;;;;2.22;80.20;99328.55;226672;1270;22570;-84
2024/03/08 08:05:30;;;;;;;30.60;22.10;;;;;;;2.33;79.90;99329.38;226809;1269;25981;-82
2024/03/08 08:10:32;;;;;;;29.60;21.60;;;;;;;2.41;79.56;99338.09;226478;1267;22543;-83
2024/03/08 08:15:34;;;;;;;27.80;21.00;;;;;;;2.52;79.33;99343.66;226620;1273;22537;-83
2024/03/08 08:20:37;;;;;;;30.40;20.40;;;;;;;2.59;78.83;99342.61;226484;1271;25371;-83
2024/03/08 08:25:40;;;;;;;30.00;21.90;;;;;;;2.66;78.44;99347.80;226482;1266;24718;-84
2024/03/08 08:30:42;;;;;;;31.80;22.70;;;;;;;2.76;78.36;99343.66;226440;1262;22566;-84
2024/03/08 08:35:44;;;;;;;33.00;22.60;;;;;;;2.90;78.07;99344.90;226581;1269;22542;-84
2024/03/08 08:40:47;;;;;;;32.60;22.90;;;;;;;3.04;77.74;99344.97;226700;1271;22535;-84
2024/03/08 08:45:50;;;;;;;32.50;21.40;;;;;;;3.19;77.68;99343.86;226774;1273;26457;-83
2024/03/08 08:50:53;;;;;;;27.60;20.00;;;;;;;3.39;77.48;99339.22;226691;1255;22535;-84
2024/03/08 08:55:56;;;;;;;27.80;20.40;;;;;;;3.56;77.41;99335.38;226635;1269;22536;-83
2024/03/08 09:00:59;;;;;;;29.30;21.30;;;;;;;3.66;76.84;99336.30;226838;1271;22635;-84
2024/03/08 09:06:02;;;;;;;28.10;20.00;;;;;;;3.67;76.44;99335.48;226842;1272;22528;-84
2024/03/08 09:11:05;;;;;;;25.30;19.10;;;;;;;3.73;76.22;99332.39;226663;1270;22534;-83
2024/03/08 09:16:07;;;;;;;27.80;20.60;;;;;;;3.77;75.97;99330.22;226711;1273;22534;-83
2024/03/08 09:21:09;;;;;;;29.40;20.80;;;;;;;3.96;76.21;99321.28;226633;1271;22569;-83
2024/03/08 09:26:12;;;;;;;30.00;20.00;;;;;;;4.08;75.55;99316.73;226717;1265;22543;-83
2024/03/08 09:31:26;;;;;;;29.60;20.20;;;;;;;4.16;75.38;99316.96;226637;1262;22584;-83
2024/03/08 09:36:29;;;;;;;29.20;20.60;;;;;;;4.22;74.89;99311.89;226842;1260;22540;-82
2024/03/08 09:41:34;;;;;;;29.40;20.70;;;;;;;4.29;74.70;99315.10;226587;1249;22543;-82
2024/03/08 09:46:36;;;;;;;29.20;20.70;;;;;;;4.47;74.67;99311.35;226872;1266;22637;-82
2024/03/08 09:51:40;;;;;;;29.90;20.90;;;;;;;4.64;74.35;99311.98;226835;1266;23657;-83
2024/03/08 09:56:44;;;;;;;27.30;20.90;;;;;;;4.79;73.78;99313.45;226819;1265;25936;-83
2024/03/08 10:01:46;;;;;;;30.50;22.10;;;;;;;4.79;73.45;99307.15;226720;1265;23006;-83
2024/03/08 10:06:48;;;;;;;27.60;19.60;;;;;;;4.89;73.35;99307.59;226725;1262;22617;-83
2024/03/08 10:11:55;;;;;;;29.70;20.40;;;;;;;5.19;73.77;99303.99;226601;1262;22541;-83
2024/03/08 10:16:59;;;;;;;27.50;20.40;;;;;;;5.40;72.89;99302.53;226481;1271;22544;-83
2024/03/08 10:22:04;;;;;;;28.60;20.90;;;;;;;5.50;72.90;99299.20;226326;1260;22537;-83
2024/03/08 10:27:07;;;;;;;30.00;20.70;;;;;;;5.34;71.92;99298.05;226361;1271;22549;-83
2024/03/08 10:32:10;;;;;;;30.70;23.70;;;;;;;5.01;71.61;99303.73;226452;1254;23056;-82
2024/03/08 10:37:22;;;;;;;30.10;20.30;;;;;;;4.68;71.62;99304.80;226377;1256;24233;-84
2024/03/08 10:42:29;;;;;;;29.50;21.10;;;;;;;4.36;71.99;99308.39;226496;1269;22568;-83
2024/03/08 10:47:35;;;;;;;30.40;21.60;;;;;;;4.13;72.07;99302.58;226640;1262;22927;-83
2024/03/08 10:52:39;;;;;;;32.20;22.40;;;;;;;3.98;72.30;99299.51;226808;1270;22733;-83
2024/03/08 10:57:41;;;;;;;29.60;20.30;;;;;;;4.03;73.21;99294.08;226697;1269;23294;-81
2024/03/08 11:02:44;;;;;;;31.20;22.60;;;;;;;4.21;73.32;99291.90;226630;1271;24373;-81
2024/03/08 11:07:47;;;;;;;28.10;20.70;;;;;;;4.50;73.85;99283.92;226713;1272;22527;-82
2024/03/08 11:12:49;;;;;;;31.40;22.40;;;;;;;4.71;73.14;99276.46;226703;1271;22529;-82
2024/03/08 11:17:55;;;;;;;31.10;21.50;;;;;;;4.95;73.04;99270.02;226667;1272;22690;-83
2024/03/08 11:23:04;;;;;;;27.70;20.80;;;;;;;5.04;72.28;99270.09;226706;1254;22565;-83
2024/03/08 11:28:18;;;;;;;30.80;20.80;;;;;;;5.05;72.37;99261.09;226657;1271;23254;-84
2024/03/08 11:33:21;;;;;;;28.10;20.70;;;;;;;5.02;72.07;99256.01;226708;1259;22528;-83
2024/03/08 11:38:24;;;;;;;31.50;23.10;;;;;;;4.90;71.95;99256.84;226683;1257;22536;-84
2024/03/08 11:43:26;;;;;;;32.10;21.90;;;;;;;4.92;72.67;99248.36;226833;1270;22531;-82
2024/03/08 11:48:39;;;;;;;30.00;21.50;;;;;;;5.01;72.70;99241.60;226788;1271;22512;-89
2024/03/08 11:53:41;;;;;;;32.90;23.90;;;;;;;5.07;72.57;99238.70;226589;1269;22536;-82
2024/03/08 11:58:57;;;;;;;33.30;22.40;;;;;;;5.13;72.24;99229.95;226936;1272;22547;-82
2024/03/08 12:03:59;;;;;;;30.80;24.00;;;;;;;5.18;71.91;99222.46;226780;1268;22622;-82
2024/03/08 12:09:02;;;;;;;30.80;22.80;;;;;;;5.25;72.14;99222.73;226824;1262;22552;-83
2024/03/08 12:14:06;;;;;;;32.30;21.60;;;;;;;5.39;72.73;99214.42;226769;1266;22531;-82
2024/03/08 12:19:09;;;;;;;28.00;21.00;;;;;;;5.61;72.89;99214.30;226792;1273;22535;-82
2024/03/08 12:24:19;;;;;;;26.40;21.20;;;;;;;5.87;72.41;99214.60;226617;1265;22592;-82
2024/03/08 12:29:24;;;;;;;28.40;21.20;;;;;;;6.00;71.95;99210.48;226718;1262;23258;-82
2024/03/08 12:34:28;;;;;;;27.90;20.30;;;;;;;6.06;71.20;99200.58;226631;1270;22543;-82
2024/03/08 12:39:30;;;;;;;27.80;22.30;;;;;;;6.10;71.30;99190.38;226816;1256;24213;-82
2024/03/08 12:44:32;;;;;;;29.90;22.00;;;;;;;6.22;71.68;99184.59;226759;1273;22537;-82
2024/03/08 12:49:34;;;;;;;31.70;24.60;;;;;;;6.30;71.01;99177.50;226689;1271;22640;-82
2024/03/08 12:54:36;;;;;;;31.50;22.60;;;;;;;6.42;70.93;99175.96;226347;1273;246980;-80
2024/03/08 12:59:38;;;;;;;29.30;21.60;;;;;;;6.49;70.81;99162.84;226524;1257;22538;-83
2024/03/08 13:04:41;;;;;;;30.70;21.40;;;;;;;6.63;71.16;99156.21;226646;1265;23244;-82
2024/03/08 13:09:43;;;;;;;32.00;21.80;;;;;;;6.68;70.45;99150.77;226812;1263;22558;-82
2024/03/08 13:14:46;;;;;;;27.70;21.70;;;;;;;6.66;69.72;99144.36;226883;1269;24222;-82
2024/03/08 13:19:48;;;;;;;27.80;20.80;;;;;;;6.61;69.72;99139.60;226851;1269;25290;-83
2024/03/08 13:24:52;;;;;;;28.40;21.80;;;;;;;6.66;69.95;99134.35;226901;1272;22634;-82
2024/03/08 13:29:55;;;;;;;30.80;22.60;;;;;;;6.66;69.54;99133.11;226809;1272;24276;-82
2024/03/08 13:34:57;;;;;;;33.80;24.20;;;;;;;6.68;69.29;99127.13;226833;1269;22526;-82
2024/03/08 13:39:59;;;;;;;32.40;23.00;;;;;;;6.76;69.60;99124.79;226785;1259;22520;-82
2024/03/08 13:45:02;;;;;;;36.40;25.80;;;;;;;6.82;69.42;99124.20;226690;1270;25322;-83
2024/03/08 13:50:07;;;;;;;36.30;25.50;;;;;;;6.86;69.47;99118.44;226575;1273;22548;-82
2024/03/08 13:55:09;;;;;;;32.80;24.00;;;;;;;6.90;69.20;99111.11;226607;1273;23752;-83
2024/03/08 14:00:12;;;;;;;35.00;24.60;;;;;;;6.95;68.96;99110.95;226642;1271;22684;-82
2024/03/08 14:05:16;;;;;;;35.10;25.60;;;;;;;6.96;69.08;99106.26;226819;1271;22523;-81
2024/03/08 14:10:22;;;;;;;37.40;26.30;;;;;;;7.01;69.22;99102.33;226576;1267;22545;-80
2024/03/08 14:15:25;;;;;;;33.60;24.90;;;;;;;7.03;68.91;99098.85;226645;1270;22534;-80
2024/03/08 14:20:31;;;;;;;34.80;25.70;;;;;;;7.08;69.19;99099.05;226748;1273;22589;-81
2024/03/08 14:25:33;;;;;;;33.60;24.80;;;;;;;7.11;68.70;99094.73;226697;1273;22580;-81
2024/03/08 14:30:37;;;;;;;37.60;26.20;;;;;;;7.10;68.93;99088.85;226507;1249;22612;-82
2024/03/08 14:35:41;;;;;;;37.50;26.30;;;;;;;7.11;68.35;99087.02;226736;1269;22522;-82
2024/03/08 14:40:46;;;;;;;39.20;25.60;;;;;;;7.08;68.54;99081.88;226609;1272;22541;-81
2024/03/08 14:45:50;;;;;;;35.30;24.70;;;;;;;7.08;68.59;99080.47;226703;1273;22538;-81
2024/03/08 14:50:54;;;;;;;33.80;23.40;;;;;;;7.06;68.47;99077.27;226849;1273;23046;-82
2024/03/08 14:55:56;;;;;;;36.50;25.20;;;;;;;7.01;68.37;99075.80;226708;1269;22696;-82
2024/03/08 15:01:00;;;;;;;39.00;24.60;;;;;;;6.93;67.95;99068.95;226464;1273;22545;-82
2024/03/08 15:06:09;;;;;;;35.30;24.90;;;;;;;6.89;67.94;99064.98;226528;1273;24275;-81
2024/03/08 15:11:24;;;;;;;34.40;24.60;;;;;;;6.85;68.43;99060.48;226674;1273;24286;-81
2024/03/08 15:16:27;;;;;;;38.80;25.60;;;;;;;6.78;68.11;99061.25;226836;1273;22545;-81
2024/03/08 15:21:30;;;;;;;38.00;26.40;;;;;;;6.69;68.12;99057.73;226902;1273;22546;-82
2024/03/08 15:26:32;;;;;;;40.60;26.30;;;;;;;6.59;68.10;99054.55;226827;1270;22533;-82
2024/03/08 15:31:34;;;;;;;36.10;26.00;;;;;;;6.48;68.33;99051.88;226743;1270;22568;-82
2024/03/08 15:36:36;;;;;;;34.40;24.70;;;;;;;6.38;68.55;99051.45;226853;1265;22567;-82
2024/03/08 15:41:42;;;;;;;34.60;24.30;;;;;;;6.27;69.02;99046.36;226904;1273;22639;-81
2024/03/08 15:46:47;;;;;;;34.70;25.00;;;;;;;6.18;69.25;99046.45;226830;1270;23018;-81
2024/03/08 15:51:54;;;;;;;35.90;26.00;;;;;;;6.04;69.14;99049.94;226843;1272;22553;-82
2024/03/08 15:56:57;;;;;;;34.90;24.40;;;;;;;5.90;69.29;99042.98;226820;1270;24205;-82
2024/03/08 16:02:01;;;;;;;36.20;24.10;;;;;;;5.75;69.11;99040.79;226927;1273;22565;-82
2024/03/08 16:07:06;;;;;;;38.00;23.90;;;;;;;5.55;69.55;99043.43;226707;1273;22530;-83
2024/03/08 16:12:09;;;;;;;37.20;25.50;;;;;;;5.38;69.58;99045.81;226720;1273;22542;-82
2024/03/08 16:17:12;;;;;;;35.10;23.00;;;;;;;5.21;69.76;99043.05;226773;1270;22545;-81
2024/03/08 16:22:14;;;;;;;34.70;22.00;;;;;;;5.03;69.75;99044.98;226891;1273;22539;-81
2024/03/08 16:27:20;;;;;;;37.40;25.00;;;;;;;4.84;70.06;99052.90;226814;1273;22556;-82
2024/03/08 16:32:22;;;;;;;44.40;28.30;;;;;;;4.65;70.54;99048.46;226798;1272;22540;-82
2024/03/08 16:37:26;;;;;;;42.00;26.60;;;;;;;4.47;71.06;99046.66;226922;1272;22629;-81
2024/03/08 16:42:29;;;;;;;42.50;28.00;;;;;;;4.26;71.30;99046.49;226902;1269;22553;-82
2024/03/08 16:47:30;;;;;;;45.80;28.10;;;;;;;4.08;71.54;99046.83;226897;1267;22543;-82
2024/03/08 16:52:34;;;;;;;48.30;30.10;;;;;;;3.90;72.02;99050.55;226947;1272;22596;-82
2024/03/08 16:57:47;;;;;;;49.00;29.20;;;;;;;3.76;72.26;99051.76;226823;1273;22551;-81
2024/03/08 17:02:54;;;;;;;50.40;31.10;;;;;;;3.61;72.53;99052.80;226905;1269;25249;-80
2024/03/08 17:08:00;;;;;;;53.50;31.20;;;;;;;3.44;72.80;99061.63;226874;1273;22537;-82
2024/03/08 17:13:05;;;;;;;52.40;30.90;;;;;;;3.28;72.80;99062.86;226914;1273;22537;-81
2024/03/08 17:18:08;;;;;;;48.10;29.40;;;;;;;3.17;73.15;99064.41;226854;1270;25250;-82
2024/03/08 17:23:13;;;;;;;51.30;31.40;;;;;;;3.06;73.40;99063.31;226924;1270;22526;-81
2024/03/08 17:28:16;;;;;;;51.80;31.20;;;;;;;2.95;73.55;99069.50;226970;1273;22652;-81
2024/03/08 17:33:21;;;;;;;58.00;33.40;;;;;;;2.87;73.91;99064.42;226985;1273;22592;-82
2024/03/08 17:38:24;;;;;;;59.80;33.10;;;;;;;2.82;73.95;99065.33;226972;1273;22537;-82
2024/03/08 17:43:27;;;;;;;58.10;33.20;;;;;;;2.74;74.21;99066.91;226959;1273;22544;-82
2024/03/08 17:48:29;;;;;;;63.10;35.20;;;;;;;2.65;74.35;99063.90;226932;1273;22628;-81
2024/03/08 17:53:32;;;;;;;61.90;36.20;;;;;;;2.52;74.40;99064.27;226903;1267;22559;-81
2024/03/08 17:58:35;;;;;;;70.00;39.60;;;;;;;2.41;74.63;99068.85;226906;1267;22552;-82
2024/03/08 18:03:38;;;;;;;73.30;40.10;;;;;;;2.30;74.68;99070.65;226887;1265;22541;-82
2024/03/08 18:08:42;;;;;;;69.30;38.10;;;;;;;2.17;75.00;99066.71;226924;1270;22544;-82
2024/03/08 18:13:47;;;;;;;69.70;40.20;;;;;;;2.08;75.13;99073.91;227024;1267;22639;-82
2024/03/08 18:18:50;;;;;;;75.40;40.80;;;;;;;2.00;75.36;99070.41;226998;1273;22708;-82
2024/03/08 18:23:52;;;;;;;83.70;46.40;;;;;;;1.92;75.64;99064.35;226939;1270;22538;-81
2024/03/08 18:28:55;;;;;;;73.40;42.90;;;;;;;1.85;75.84;99063.52;226933;1270;22524;-81
2024/03/08 18:34:00;;;;;;;80.60;42.60;;;;;;;1.82;76.07;99063.11;226944;1270;22549;-81
2024/03/08 18:39:07;;;;;;;60.00;36.20;;;;;;;1.79;76.28;99059.66;226927;1273;22537;-81
2024/03/08 18:44:08;;;;;;;67.40;39.00;;;;;;;1.78;76.29;99052.48;226896;1270;22545;-81
2024/03/08 18:49:16;;;;;;;65.50;36.80;;;;;;;1.76;76.49;99049.30;226882;1270;22603;-81
2024/03/08 18:54:19;;;;;;;67.80;37.90;;;;;;;1.75;76.53;99052.16;227070;1270;22673;-82
2024/03/08 18:59:22;;;;;;;65.90;38.70;;;;;;;1.71;76.54;99042.39;226814;1271;22919;-80
2024/03/08 19:04:28;;;;;;;70.50;39.40;;;;;;;1.72;76.89;99042.83;226951;1270;22573;-81
2024/03/08 19:09:30;;;;;;;95.80;52.50;;;;;;;1.72;76.86;99045.27;226896;1268;22581;-82
2024/03/08 19:14:33;;;;;;;80.70;46.70;;;;;;;1.72;76.90;99044.27;226897;1270;22542;-81
2024/03/08 19:19:35;;;;;;;84.60;47.80;;;;;;;1.70;77.32;99043.92;226912;1271;24285;-81
2024/03/08 19:24:37;;;;;;;97.10;53.80;;;;;;;1.66;77.48;99036.94;226914;1270;22649;-81
2024/03/08 19:29:39;;;;;;;92.10;50.10;;;;;;;1.64;77.66;99032.08;226996;1270;22543;-81
2024/03/08 19:34:41;;;;;;;79.50;44.50;;;;;;;1.63;77.76;99027.83;226989;1269;22540;-81
2024/03/08 19:39:44;;;;;;;68.20;39.90;;;;;;;1.55;77.84;99023.27;227052;1270;22534;-82
2024/03/08 19:44:49;;;;;;;66.20;38.80;;;;;;;1.40;77.82;99028.80;226970;1268;22545;-82
2024/03/08 19:49:53;;;;;;;65.20;37.60;;;;;;;1.24;78.04;99022.95;226842;1273;22541;-82
2024/03/08 19:54:56;;;;;;;63.90;37.10;;;;;;;1.15;78.44;99020.95;227013;1272;23261;-81
2024/03/08 19:59:58;;;;;;;67.30;37.50;;;;;;;1.09;78.58;99016.59;227004;1273;22564;-83
2024/03/08 20:05:01;;;;;;;71.50;37.70;;;;;;;0.97;78.53;99014.61;226932;1271;22545;-82
2024/03/08 20:10:09;;;;;;;67.30;39.00;;;;;;;0.86;78.78;99018.61;226946;1267;22521;-82
2024/03/08 20:15:14;;;;;;;72.40;39.00;;;;;;;0.80;79.09;99018.90;226918;1265;22563;-81
2024/03/08 20:20:16;;;;;;;73.70;40.30;;;;;;;0.75;79.08;99017.17;226985;1272;22987;-82
2024/03/08 20:25:26;;;;;;;66.70;37.20;;;;;;;0.65;79.22;99015.86;226949;1270;22537;-82
2024/03/08 20:30:29;;;;;;;67.50;39.80;;;;;;;0.57;79.46;99014.63;226916;1270;22655;-82
2024/03/08 20:35:35;;;;;;;75.30;42.20;;;;;;;0.52;79.59;99012.28;226892;1273;25529;-82
2024/03/08 20:40:44;;;;;;;68.90;37.30;;;;;;;0.45;79.73;99009.00;226832;1272;22530;-81
2024/03/08 20:45:47;;;;;;;75.40;42.30;;;;;;;0.39;79.74;99004.49;226857;1273;22628;-81
2024/03/08 20:50:54;;;;;;;70.70;40.30;;;;;;;0.33;79.82;99001.09;226994;1272;22554;-82
2024/03/08 20:55:59;;;;;;;75.90;42.20;;;;;;;0.25;79.96;99000.62;227027;1270;22970;-82
2024/03/08 21:01:03;;;;;;;67.20;39.40;;;;;;;0.22;80.03;98997.98;226950;1270;22544;-82
2024/03/08 21:06:07;;;;;;;66.90;37.40;;;;;;;0.15;80.07;98996.27;226842;1271;22537;-82
2024/03/08 21:11:09;;;;;;;60.20;35.00;;;;;;;0.09;80.11;98992.08;226990;1270;22601;-82
2024/03/08 21:16:13;;;;;;;61.50;34.20;;;;;;;0.04;80.48;98988.96;227022;1273;22629;-81
2024/03/08 21:21:18;;;;;;;56.40;33.00;;;;;;;-0.02;80.47;98983.72;226960;1271;22575;-82
2024/03/08 21:26:20;;;;;;;67.80;36.20;;;;;;;-0.03;80.63;98980.10;226940;1273;22567;-83
2024/03/08 21:31:23;;;;;;;60.70;35.50;;;;;;;-0.06;80.54;98978.11;226922;1273;25428;-82
2024/03/08 21:36:29;;;;;;;65.70;36.00;;;;;;;-0.06;80.93;98974.15;226977;1272;22550;-81
2024/03/08 21:41:33;;;;;;;66.40;38.30;;;;;;;-0.01;81.26;98975.31;226945;1268;24254;-83
2024/03/08 21:46:36;;;;;;;69.90;39.50;;;;;;;0.07;81.45;98972.11;226833;1273;22591;-82
2024/03/08 21:51:45;;;;;;;70.70;39.50;;;;;;;0.09;81.43;98971.95;226962;1271;22662;-81
2024/03/08 21:56:48;;;;;;;72.70;38.10;;;;;;;0.09;81.38;98968.52;226952;1266;21761;-81
2024/03/08 22:01:52;;;;;;;71.10;38.30;;;;;;;0.07;81.53;98957.89;226936;1273;22693;-81
2024/03/08 22:06:58;;;;;;;70.60;38.50;;;;;;;0.05;81.28;98946.98;226954;1273;22550;-82
2024/03/08 22:12:03;;;;;;;66.70;38.50;;;;;;;0.01;81.36;98943.96;226974;1268;22699;-81
2024/03/08 22:17:06;;;;;;;69.70;38.80;;;;;;;-0.03;81.49;98943.05;226871;1270;22537;-81
2024/03/08 22:22:08;;;;;;;66.20;39.00;;;;;;;-0.07;81.42;98947.92;227069;1271;22527;-82
2024/03/08 22:27:11;;;;;;;68.00;37.90;;;;;;;-0.13;81.61;98943.98;226939;1273;24236;-81
2024/03/08 22:32:13;;;;;;;65.30;38.40;;;;;;;-0.17;81.57;98941.42;226821;1273;22601;-81
2024/03/08 22:37:15;;;;;;;69.20;37.90;;;;;;;-0.24;81.82;98937.94;226967;1267;22540;-81
2024/03/08 22:42:17;;;;;;;73.00;39.40;;;;;;;-0.29;81.85;98938.11;227024;1273;22727;-81
2024/03/08 22:47:20;;;;;;;79.80;41.50;;;;;;;-0.32;81.87;98931.83;226942;1270;22545;-81
2024/03/08 22:52:23;;;;;;;71.20;37.40;;;;;;;-0.33;82.13;98927.96;226917;1272;22537;-81
2024/03/08 22:57:26;;;;;;;72.00;39.10;;;;;;;-0.35;82.17;98918.39;226810;1273;22683;-81
2024/03/08 23:02:31;;;;;;;67.90;38.50;;;;;;;-0.37;82.40;98915.93;226944;1262;22579;-81
2024/03/08 23:07:35;;;;;;;74.10;39.10;;;;;;;-0.41;82.44;98911.31;226785;1273;22594;-82
2024/03/08 23:12:38;;;;;;;65.10;35.50;;;;;;;-0.48;82.27;98913.61;226911;1272;22560;-82